Terminal Aerodrome Forecast
Issued by NWS

Home | Current Version | Previous Version | Text Only | Print | Product List | Glossary On
Versions: 1 2 3 4 5 6 7 8 9 10 11 12 13 14 15 16
000
FTUS46 KHNX 190539
TAFMCE
TAF
KMCE 190539Z 1906/2006 00000KT P6SM FEW200
     FM190900 00000KT 3SM BR SKC
      TEMPO 1913/1917 1/2SM FG SKC
     FM191900 32004KT P6SM SKC=

USA.gov is the U.S. government's official web portal to all federal, state and local government web resources and services.